createdAt,value
2018-06-12T00:00:27.915Z,9.97
2018-06-12T00:02:40.304Z,11.20
2018-06-12T00:04:52.783Z,12.53
2018-06-12T00:07:05.214Z,10.80
2018-06-12T00:09:17.561Z,11.23
2018-06-12T00:11:29.897Z,9.03
2018-06-12T00:13:42.242Z,11.53
2018-06-12T00:15:54.546Z,11.10
2018-06-12T00:18:07.015Z,11.27
2018-06-12T00:20:19.389Z,10.97
2018-06-12T00:22:31.694Z,12.20
2018-06-12T00:24:44.064Z,12.70
2018-06-12T00:26:56.398Z,13.57
2018-06-12T00:29:08.762Z,13.80
2018-06-12T00:31:21.225Z,12.83
2018-06-12T00:33:33.591Z,13.13
2018-06-12T00:35:45.956Z,12.47
2018-06-12T00:37:58.365Z,13.07
2018-06-12T00:40:10.965Z,12.63
2018-06-12T00:42:23.322Z,12.80
2018-06-12T00:44:35.670Z,11.97
2018-06-12T00:46:48.167Z,12.80
2018-06-12T00:49:00.500Z,11.80
2018-06-12T00:51:12.867Z,11.40
2018-06-12T00:53:25.246Z,9.90
2018-06-12T00:55:37.554Z,8.17
2018-06-12T00:57:49.967Z,8.40
2018-06-12T01:00:02.315Z,8.00
2018-06-12T01:02:14.689Z,8.20
2018-06-12T01:04:27.033Z,7.17
2018-06-12T01:06:39.373Z,8.40
2018-06-12T01:08:51.757Z,7.50
2018-06-12T01:11:04.190Z,6.47
2018-06-12T01:13:16.643Z,7.97
2018-06-12T01:15:29.117Z,8.47
2018-06-12T01:17:41.619Z,9.03
2018-06-12T01:19:53.963Z,8.60
2018-06-12T01:22:06.441Z,7.57
2018-06-12T01:24:18.806Z,8.30
2018-06-12T01:26:31.177Z,8.13
2018-06-12T01:28:43.535Z,7.87
2018-06-12T01:30:56.059Z,8.30
2018-06-12T01:33:08.466Z,8.30
2018-06-12T01:35:21.141Z,8.10
2018-06-12T01:37:33.470Z,8.17
2018-06-12T01:39:45.837Z,8.13
2018-06-12T01:41:58.204Z,8.40
2018-06-12T01:44:10.525Z,7.67
2018-06-12T01:46:22.853Z,8.07
2018-06-12T01:48:35.205Z,9.10
2018-06-12T01:50:47.608Z,9.37
2018-06-12T01:52:59.962Z,9.57
2018-06-12T01:55:12.992Z,9.70
2018-06-12T01:57:25.542Z,9.03
2018-06-12T01:59:37.858Z,8.33
2018-06-12T02:01:50.271Z,9.13
2018-06-12T02:04:02.582Z,8.20
2018-06-12T02:06:14.958Z,9.43
2018-06-12T02:08:27.321Z,8.87
2018-06-12T02:10:39.694Z,10.40
2018-06-12T02:12:52.038Z,8.93
2018-06-12T02:15:04.534Z,9.60
2018-06-12T02:17:16.999Z,9.97
2018-06-12T02:19:29.342Z,9.70
2018-06-12T02:21:41.735Z,9.83
2018-06-12T02:23:54.138Z,12.00
2018-06-12T02:26:06.469Z,12.17
2018-06-12T02:28:18.790Z,12.67
2018-06-12T02:30:31.205Z,11.77
2018-06-12T02:32:43.550Z,12.13
2018-06-12T02:34:55.878Z,12.33
2018-06-12T02:37:08.259Z,12.43
2018-06-12T02:39:20.648Z,8.83
2018-06-12T02:41:33.094Z,11.47
2018-06-12T02:43:45.443Z,12.13
2018-06-12T02:45:57.809Z,12.07
2018-06-12T02:48:10.163Z,13.63
2018-06-12T02:50:22.551Z,13.97
2018-06-12T02:52:34.910Z,15.00
2018-06-12T02:54:47.396Z,14.07
2018-06-12T02:56:59.867Z,13.97
2018-06-12T02:59:12.199Z,11.60
2018-06-12T03:01:24.542Z,14.57
2018-06-12T03:03:36.831Z,14.63
2018-06-12T03:05:49.175Z,14.33
2018-06-12T03:08:01.484Z,11.53
2018-06-12T03:10:16.660Z,13.87
2018-06-12T03:12:34.919Z,16.00
2018-06-12T03:14:47.322Z,13.90
2018-06-12T03:16:59.846Z,13.80
2018-06-12T03:19:12.171Z,12.47
2018-06-12T03:21:24.494Z,11.00
2018-06-12T03:23:36.815Z,11.80
2018-06-12T03:25:56.432Z,9.80
2018-06-12T03:28:08.800Z,10.37
2018-06-12T03:30:21.288Z,10.57
2018-06-12T03:32:33.738Z,10.57
2018-06-12T03:34:46.125Z,9.83
2018-06-12T03:36:58.495Z,8.27
2018-06-12T03:39:10.910Z,10.27
2018-06-12T03:41:23.410Z,11.50
2018-06-12T03:43:35.723Z,10.73
2018-06-12T03:45:48.111Z,10.60
2018-06-12T03:48:00.498Z,13.90
2018-06-12T03:50:12.882Z,25.97
2018-06-12T03:52:25.229Z,14.73
2018-06-12T03:54:37.574Z,15.27
2018-06-12T03:56:50.063Z,10.17
2018-06-12T03:59:02.457Z,17.80
2018-06-12T04:01:14.841Z,19.23
2018-06-12T04:03:27.232Z,15.83
2018-06-12T04:05:39.672Z,12.83
2018-06-12T04:07:52.255Z,14.97
2018-06-12T04:10:04.846Z,12.57
2018-06-12T04:12:17.390Z,13.50
2018-06-12T04:14:30.159Z,15.10
2018-06-12T04:16:42.774Z,14.70
2018-06-12T04:18:55.158Z,14.50
2018-06-12T04:21:07.584Z,14.67
2018-06-12T04:23:20.351Z,12.30
2018-06-12T04:25:32.678Z,12.20
2018-06-12T04:27:45.060Z,16.43
2018-06-12T04:29:57.415Z,15.50
2018-06-12T04:32:10.562Z,14.00
2018-06-12T04:34:22.962Z,17.70
2018-06-12T04:36:35.478Z,16.97
2018-06-12T04:38:47.867Z,16.00
2018-06-12T04:41:00.216Z,14.97
2018-06-12T04:43:12.582Z,18.40
2018-06-12T04:45:25.107Z,19.17
2018-06-12T04:47:37.647Z,18.07
2018-06-12T04:49:50.000Z,18.20
2018-06-12T04:52:02.379Z,15.27
2018-06-12T04:54:14.786Z,13.93
2018-06-12T04:56:27.239Z,12.93
2018-06-12T04:58:39.682Z,18.60
2018-06-12T05:00:52.039Z,19.10
2018-06-12T05:03:04.511Z,18.13
2018-06-12T05:05:16.812Z,16.80
2018-06-12T05:07:29.172Z,20.60
2018-06-12T05:09:41.549Z,19.83
2018-06-12T05:11:53.924Z,20.20
2018-06-12T05:14:06.267Z,19.03
2018-06-12T05:16:18.658Z,19.03
2018-06-12T05:18:31.066Z,16.90
2018-06-12T05:20:43.442Z,18.47
2018-06-12T05:22:55.841Z,19.07
2018-06-12T05:25:08.206Z,19.60
2018-06-12T05:27:20.577Z,18.67
2018-06-12T05:29:32.884Z,17.83
2018-06-12T05:31:45.258Z,14.53
2018-06-12T05:33:57.610Z,17.77
2018-06-12T05:36:10.027Z,18.90
2018-06-12T05:38:22.430Z,17.23
2018-06-12T05:40:34.810Z,16.30
2018-06-12T05:42:47.199Z,16.40
2018-06-12T05:44:59.527Z,14.70
2018-06-12T05:47:11.983Z,13.20
2018-06-12T05:49:24.438Z,14.57
2018-06-12T05:51:36.785Z,10.83
2018-06-12T05:53:49.121Z,15.03
2018-06-12T05:56:01.510Z,18.60
2018-06-12T05:58:13.803Z,20.67
2018-06-12T06:00:26.174Z,21.60
2018-06-12T06:02:38.498Z,21.27
2018-06-12T06:04:51.057Z,19.27
2018-06-12T06:07:03.397Z,19.80
2018-06-12T06:09:15.871Z,20.43
2018-06-12T06:11:28.312Z,19.10
2018-06-12T06:13:40.661Z,21.30
2018-06-12T06:15:53.016Z,19.63
2018-06-12T06:18:05.349Z,22.70
2018-06-12T06:20:17.853Z,20.07
2018-06-12T06:22:30.256Z,21.50
2018-06-12T06:24:42.607Z,22.07
2018-06-12T06:26:55.044Z,19.70
2018-06-12T06:29:07.375Z,22.33
2018-06-12T06:31:19.803Z,20.67
2018-06-12T06:33:32.221Z,21.27
2018-06-12T06:35:44.702Z,19.97
2018-06-12T06:37:57.055Z,18.90
2018-06-12T06:40:09.431Z,21.67
2018-06-12T06:42:21.806Z,15.53
2018-06-12T06:44:34.170Z,19.50
2018-06-12T06:46:46.682Z,18.37
2018-06-12T06:48:58.982Z,20.70
2018-06-12T06:51:11.387Z,18.93
2018-06-12T06:53:23.738Z,18.77
2018-06-12T06:55:36.398Z,19.47
2018-06-12T06:57:48.838Z,20.87
2018-06-12T07:00:01.159Z,22.67
2018-06-12T07:02:13.770Z,21.10
2018-06-12T07:04:26.163Z,18.73
2018-06-12T07:06:38.679Z,20.63
2018-06-12T07:08:51.086Z,19.37
2018-06-12T07:11:03.553Z,22.60
2018-06-12T07:13:15.910Z,21.80
2018-06-12T07:15:28.233Z,18.37
2018-06-12T07:17:40.640Z,21.70
2018-06-12T07:19:53.187Z,22.97
2018-06-12T07:22:05.571Z,18.00
2018-06-12T07:24:17.900Z,23.80
2018-06-12T07:26:30.230Z,21.20
2018-06-12T07:28:42.614Z,19.83
2018-06-12T07:30:55.063Z,21.90
2018-06-12T07:33:07.466Z,19.67
2018-06-12T07:35:19.838Z,24.03
2018-06-12T07:37:32.489Z,22.20
2018-06-12T07:39:44.845Z,20.17
2018-06-12T07:41:57.213Z,22.10
2018-06-12T07:44:09.572Z,20.00
2018-06-12T07:46:21.928Z,23.07
2018-06-12T07:48:34.289Z,24.97
2018-06-12T07:50:46.646Z,24.03
2018-06-12T07:52:59.022Z,20.03
2018-06-12T07:55:11.509Z,16.40
2018-06-12T07:57:23.867Z,18.90
2018-06-12T07:59:36.206Z,18.40
2018-06-12T08:01:48.626Z,16.27
2018-06-12T08:04:01.184Z,18.10
2018-06-12T08:06:13.587Z,19.47
2018-06-12T08:08:25.958Z,16.87
2018-06-12T08:10:38.306Z,14.93
2018-06-12T08:12:50.869Z,16.03
2018-06-12T08:15:03.251Z,14.77
2018-06-12T08:17:15.665Z,15.63
2018-06-12T08:19:28.020Z,16.33
2018-06-12T08:21:40.415Z,16.43
2018-06-12T08:23:52.895Z,14.37
2018-06-12T08:26:05.247Z,15.27
2018-06-12T08:28:17.573Z,19.03
2018-06-12T08:30:29.980Z,17.97
2018-06-12T08:32:42.395Z,14.57
2018-06-12T08:34:54.783Z,15.90
2018-06-12T08:37:07.217Z,11.77
2018-06-12T08:39:19.590Z,17.30
2018-06-12T08:41:31.946Z,12.63
2018-06-12T08:43:44.350Z,16.53
2018-06-12T08:45:56.766Z,16.60
2018-06-12T08:48:09.174Z,16.10
2018-06-12T08:50:21.578Z,15.03
2018-06-12T08:52:33.954Z,16.23
2018-06-12T08:54:46.326Z,16.73
2018-06-12T08:56:58.769Z,17.90
2018-06-12T08:59:11.174Z,16.40
2018-06-12T09:01:23.578Z,14.50
2018-06-12T09:03:35.959Z,16.87
2018-06-12T09:05:48.398Z,17.00
2018-06-12T09:08:00.840Z,16.83
2018-06-12T09:10:13.274Z,14.77
2018-06-12T09:12:25.609Z,12.73
2018-06-12T09:14:38.141Z,15.67
2018-06-12T09:16:50.599Z,11.73
2018-06-12T09:19:03.146Z,11.13
2018-06-12T09:21:15.597Z,14.30
2018-06-12T09:23:28.001Z,16.87
2018-06-12T09:25:40.386Z,15.87
2018-06-12T09:27:52.737Z,15.67
2018-06-12T09:30:05.148Z,18.03
2018-06-12T09:32:17.574Z,18.73
2018-06-12T09:34:29.949Z,19.23
2018-06-12T09:36:42.357Z,17.73
2018-06-12T09:38:54.933Z,19.90
2018-06-12T09:41:07.370Z,18.07
2018-06-12T09:43:19.764Z,17.53
2018-06-12T09:45:32.166Z,17.57
2018-06-12T09:47:44.553Z,17.77
2018-06-12T09:49:57.106Z,15.07
2018-06-12T09:52:09.503Z,17.10
2018-06-12T09:54:21.933Z,17.50
2018-06-12T09:56:34.368Z,14.73
2018-06-12T09:58:46.764Z,17.33
2018-06-12T10:01:05.004Z,17.10
2018-06-12T10:03:17.493Z,17.93
2018-06-12T10:05:29.876Z,16.40
2018-06-12T10:07:42.287Z,17.67
2018-06-12T10:09:54.843Z,14.30
2018-06-12T10:12:07.527Z,16.10
2018-06-12T10:14:19.921Z,15.10
2018-06-12T10:16:32.334Z,14.93
2018-06-12T10:18:44.794Z,13.27
2018-06-12T10:20:57.096Z,14.43
2018-06-12T10:23:09.472Z,13.93
2018-06-12T10:25:21.843Z,10.47
2018-06-12T10:27:35.011Z,11.67
2018-06-12T10:29:47.427Z,12.80
2018-06-12T10:31:59.860Z,12.33
2018-06-12T10:34:12.195Z,11.90
2018-06-12T10:36:24.579Z,11.73
2018-06-12T10:38:36.985Z,13.10
2018-06-12T10:40:49.403Z,14.07
2018-06-12T10:43:01.814Z,13.23
2018-06-12T10:45:14.157Z,9.63
2018-06-12T10:47:26.552Z,9.87
2018-06-12T10:49:38.892Z,8.70
2018-06-12T10:51:51.306Z,8.40
2018-06-12T10:54:03.617Z,7.63
2018-06-12T10:56:15.994Z,8.00
2018-06-12T10:58:28.390Z,6.03
2018-06-12T11:00:40.882Z,6.70
2018-06-12T11:02:53.293Z,6.33
2018-06-12T11:05:05.741Z,6.57
2018-06-12T11:07:18.250Z,8.40
2018-06-12T11:09:30.708Z,7.80
2018-06-12T11:11:43.050Z,8.17
2018-06-12T11:13:55.539Z,9.57
2018-06-12T11:16:07.951Z,8.77
2018-06-12T11:18:20.338Z,8.83
2018-06-12T11:20:32.716Z,8.00
2018-06-12T11:22:45.174Z,9.00
2018-06-12T11:24:57.649Z,7.90
2018-06-12T11:27:10.003Z,9.00
2018-06-12T11:29:22.402Z,9.23
2018-06-12T11:31:34.838Z,8.43
2018-06-12T11:33:47.303Z,9.53
2018-06-12T11:35:59.773Z,8.27
2018-06-12T11:38:12.169Z,7.60
2018-06-12T11:40:24.534Z,7.07
2018-06-12T11:42:36.934Z,8.23
2018-06-12T11:44:49.279Z,10.00
2018-06-12T11:47:01.763Z,9.20
2018-06-12T11:49:14.149Z,10.33
2018-06-12T11:51:26.591Z,10.77
2018-06-12T11:53:39.109Z,11.83
2018-06-12T11:55:51.562Z,13.87
2018-06-12T11:58:04.090Z,13.30
2018-06-12T12:00:16.479Z,17.23
2018-06-12T12:02:28.916Z,17.23
2018-06-12T12:04:41.320Z,19.47
2018-06-12T12:06:53.828Z,18.20
2018-06-12T12:09:07.898Z,18.70
2018-06-12T12:11:20.367Z,17.77
2018-06-12T12:13:32.729Z,18.23
2018-06-12T12:15:45.150Z,14.80
2018-06-12T12:17:57.535Z,12.60
2018-06-12T12:20:10.049Z,13.27
2018-06-12T12:22:22.387Z,10.47
2018-06-12T12:24:34.849Z,12.30
2018-06-12T12:26:47.215Z,12.00
2018-06-12T12:28:59.603Z,12.07
2018-06-12T12:31:12.030Z,14.33
2018-06-12T12:33:24.386Z,15.87
2018-06-12T12:35:36.741Z,12.40
2018-06-12T12:37:49.100Z,15.10
2018-06-12T12:40:01.662Z,17.60
2018-06-12T12:42:13.939Z,17.37
2018-06-12T12:44:26.335Z,13.53
2018-06-12T12:46:38.769Z,10.13
2018-06-12T12:48:51.111Z,15.30
2018-06-12T12:51:03.526Z,13.93
2018-06-12T12:53:16.010Z,16.77
2018-06-12T12:55:28.372Z,17.00
2018-06-12T12:57:40.719Z,14.73
2018-06-12T12:59:53.130Z,14.13
2018-06-12T13:02:05.794Z,12.87
2018-06-12T13:04:18.142Z,10.73
2018-06-12T13:06:30.522Z,14.70
2018-06-12T13:08:42.855Z,17.57
2018-06-12T13:10:55.267Z,17.57
2018-06-12T13:13:07.683Z,11.80
2018-06-12T13:15:20.041Z,14.97
2018-06-12T13:17:32.390Z,17.57
2018-06-12T13:19:44.687Z,16.70
2018-06-12T13:21:57.065Z,17.73
2018-06-12T13:24:09.542Z,19.40
2018-06-12T13:26:21.965Z,16.83
2018-06-12T13:28:34.405Z,24.30
2018-06-12T13:30:46.845Z,20.30
2018-06-12T13:32:59.290Z,20.43
2018-06-12T13:35:11.707Z,23.53
2018-06-12T13:37:24.089Z,22.60
2018-06-12T13:39:36.411Z,24.40
2018-06-12T13:41:48.823Z,18.50
2018-06-12T13:44:01.206Z,20.33
2018-06-12T13:46:13.549Z,19.10
2018-06-12T13:48:25.933Z,23.83
2018-06-12T13:50:38.285Z,20.70
2018-06-12T13:52:50.665Z,20.63
2018-06-12T13:55:03.074Z,22.20
2018-06-12T13:57:15.421Z,21.10
2018-06-12T13:59:27.913Z,16.03
2018-06-12T14:01:40.281Z,22.23
2018-06-12T14:03:52.716Z,23.17
2018-06-12T14:06:05.158Z,23.17
2018-06-12T14:08:17.613Z,20.70
2018-06-12T14:10:30.074Z,15.17
2018-06-12T14:12:42.398Z,15.63
2018-06-12T14:14:54.737Z,16.77
2018-06-12T14:17:07.186Z,18.37
2018-06-12T14:19:19.659Z,20.63
2018-06-12T14:21:32.254Z,21.73
2018-06-12T14:23:44.667Z,20.20
2018-06-12T14:25:57.044Z,16.97
2018-06-12T14:28:09.449Z,17.63
2018-06-12T14:30:21.826Z,17.57
2018-06-12T14:32:34.183Z,17.80
2018-06-12T14:34:46.590Z,17.50
2018-06-12T14:36:58.949Z,15.20
2018-06-12T14:39:11.264Z,17.80
2018-06-12T14:41:23.690Z,20.40
2018-06-12T14:43:36.012Z,16.00
2018-06-12T14:45:48.372Z,17.83
2018-06-12T14:48:00.745Z,19.20
2018-06-12T14:50:13.110Z,21.47
2018-06-12T14:52:25.538Z,17.77
2018-06-12T14:54:37.961Z,16.17
2018-06-12T14:56:50.314Z,17.17
2018-06-12T14:59:02.686Z,19.23
2018-06-12T15:01:15.220Z,17.73
2018-06-12T15:03:27.634Z,18.57
2018-06-12T15:05:40.146Z,18.37
2018-06-12T15:07:52.512Z,20.43
2018-06-12T15:10:05.064Z,16.00
2018-06-12T15:12:17.466Z,16.80
2018-06-12T15:14:29.856Z,16.57
2018-06-12T15:16:42.162Z,17.77
2018-06-12T15:18:54.528Z,16.33
2018-06-12T15:21:06.915Z,17.47
2018-06-12T15:23:19.397Z,20.93
2018-06-12T15:25:31.822Z,19.50
2018-06-12T15:27:44.207Z,15.50
2018-06-12T15:29:56.611Z,17.27
2018-06-12T15:32:08.930Z,16.23
2018-06-12T15:34:21.361Z,14.50
2018-06-12T15:36:33.701Z,15.77
2018-06-12T15:38:46.059Z,12.20
2018-06-12T15:40:58.459Z,10.83
2018-06-12T15:43:10.763Z,9.73
2018-06-12T15:45:23.164Z,11.03
2018-06-12T15:47:35.640Z,11.27
2018-06-12T15:49:48.100Z,11.63
2018-06-12T15:52:00.542Z,13.27
2018-06-12T15:54:12.961Z,15.60
2018-06-12T15:56:25.330Z,11.50
2018-06-12T15:58:37.715Z,14.30
2018-06-12T16:00:50.304Z,13.93
2018-06-12T16:03:02.670Z,12.90
2018-06-12T16:05:15.229Z,14.97
2018-06-12T16:07:27.706Z,12.73
2018-06-12T16:09:40.103Z,13.93
2018-06-12T16:11:52.533Z,12.77
2018-06-12T16:14:04.865Z,14.67
2018-06-12T16:16:17.427Z,13.27
2018-06-12T16:18:29.778Z,12.73
2018-06-12T16:20:42.217Z,12.97
2018-06-12T16:22:54.742Z,11.00
2018-06-12T16:25:07.064Z,12.00
2018-06-12T16:27:20.086Z,11.80
2018-06-12T16:29:32.650Z,12.07
2018-06-12T16:31:45.007Z,11.47
2018-06-12T16:33:57.450Z,12.70
2018-06-12T16:36:09.929Z,12.67
2018-06-12T16:38:22.346Z,13.10
2018-06-12T16:40:34.740Z,12.00
2018-06-12T16:42:47.154Z,12.03
2018-06-12T16:44:59.505Z,11.40
2018-06-12T16:47:11.875Z,13.30
2018-06-12T16:49:24.346Z,10.43
2018-06-12T16:51:36.735Z,13.73
2018-06-12T16:53:49.124Z,11.17
2018-06-12T16:56:01.640Z,9.60
2018-06-12T16:58:14.043Z,8.53
2018-06-12T17:00:26.672Z,9.57
2018-06-12T17:02:39.078Z,10.40
2018-06-12T17:04:51.544Z,9.83
2018-06-12T17:07:04.189Z,11.53
2018-06-12T17:09:16.676Z,11.60
2018-06-12T17:11:29.133Z,12.67
2018-06-12T17:13:41.704Z,10.57
2018-06-12T17:15:54.189Z,11.63
2018-06-12T17:18:06.792Z,11.63
2018-06-12T17:20:19.280Z,10.77
2018-06-12T17:22:31.784Z,12.13
2018-06-12T17:24:44.254Z,11.00
2018-06-12T17:26:56.719Z,12.27
2018-06-12T17:29:09.180Z,11.70
2018-06-12T17:31:21.577Z,11.37
2018-06-12T17:33:34.097Z,12.27
2018-06-12T17:35:46.588Z,14.10
2018-06-12T17:37:58.983Z,10.30
2018-06-12T17:40:11.455Z,11.47
2018-06-12T17:42:23.888Z,10.20
2018-06-12T17:44:36.520Z,11.40
2018-06-12T17:46:49.090Z,11.53
2018-06-12T17:49:01.516Z,11.57
2018-06-12T17:51:13.935Z,12.90
2018-06-12T17:53:26.419Z,12.37
2018-06-12T17:55:38.797Z,12.50
2018-06-12T17:57:51.131Z,13.80
2018-06-12T18:00:03.658Z,13.20
2018-06-12T18:02:16.249Z,12.27
2018-06-12T18:04:28.896Z,13.00
2018-06-12T18:06:41.330Z,13.70
2018-06-12T18:08:53.842Z,12.83
2018-06-12T18:11:06.179Z,12.67
2018-06-12T18:13:18.571Z,12.07
2018-06-12T18:15:31.068Z,12.13
2018-06-12T18:17:43.615Z,13.40
2018-06-12T18:20:01.439Z,13.03
2018-06-12T18:22:13.990Z,13.97
2018-06-12T18:24:26.455Z,13.27
2018-06-12T18:26:38.813Z,13.27
2018-06-12T18:28:51.293Z,13.47
2018-06-12T18:31:05.252Z,14.23
2018-06-12T18:33:17.766Z,13.40
2018-06-12T18:35:30.388Z,12.57
2018-06-12T18:37:42.883Z,14.53
2018-06-12T18:39:55.390Z,15.60
2018-06-12T18:42:07.996Z,15.13
2018-06-12T18:44:20.451Z,13.77
2018-06-12T18:46:32.940Z,13.83
2018-06-12T18:48:45.439Z,14.67
2018-06-12T18:50:57.882Z,15.60
2018-06-12T18:53:10.339Z,17.57
2018-06-12T18:55:22.838Z,20.67
2018-06-12T18:57:35.289Z,20.07
2018-06-12T18:59:47.850Z,21.93
2018-06-12T19:02:00.268Z,21.10
2018-06-12T19:04:12.702Z,22.37
2018-06-12T19:06:25.160Z,21.23
2018-06-12T19:08:37.579Z,22.83
2018-06-12T19:10:50.020Z,24.13
2018-06-12T19:13:02.399Z,21.17
2018-06-12T19:15:14.821Z,22.07
2018-06-12T19:17:27.190Z,24.07
2018-06-12T19:19:39.653Z,24.97
2018-06-12T19:21:52.053Z,22.47
2018-06-12T19:24:04.782Z,23.90
2018-06-12T19:26:17.174Z,23.63
2018-06-12T19:28:29.578Z,25.00
2018-06-12T19:30:42.019Z,24.47
2018-06-12T19:32:54.478Z,19.20
2018-06-12T19:35:06.926Z,18.87
2018-06-12T19:37:19.318Z,22.77
2018-06-12T19:39:31.770Z,18.70
2018-06-12T19:41:44.153Z,22.20
2018-06-12T19:43:56.611Z,21.73
2018-06-12T19:46:08.987Z,23.63
2018-06-12T19:48:21.395Z,23.53
2018-06-12T19:50:33.903Z,24.63
2018-06-12T19:52:46.358Z,25.40
2018-06-12T19:54:58.798Z,19.43
2018-06-12T19:57:11.229Z,21.83
2018-06-12T19:59:23.613Z,24.07
2018-06-12T20:01:36.077Z,19.00
2018-06-12T20:03:48.575Z,23.10
2018-06-12T20:06:01.022Z,20.60
2018-06-12T20:08:13.475Z,16.47
2018-06-12T20:10:25.942Z,17.87
2018-06-12T20:12:38.378Z,19.43
2018-06-12T20:14:50.837Z,21.27
2018-06-12T20:17:03.294Z,20.63
2018-06-12T20:19:15.710Z,19.43
2018-06-12T20:21:28.121Z,21.47
2018-06-12T20:23:40.661Z,15.43
2018-06-12T20:25:53.270Z,20.37
2018-06-12T20:28:05.679Z,21.20
2018-06-12T20:30:18.131Z,17.63
2018-06-12T20:32:30.658Z,20.23
2018-06-12T20:34:43.103Z,18.77
2018-06-12T20:36:55.582Z,18.27
2018-06-12T20:39:08.306Z,19.60
2018-06-12T20:41:20.698Z,17.07
2018-06-12T20:43:33.212Z,21.00
2018-06-12T20:45:45.693Z,21.27
2018-06-12T20:47:58.147Z,18.20
2018-06-12T20:50:10.625Z,22.20
2018-06-12T20:52:23.030Z,17.90
2018-06-12T20:54:35.658Z,21.80
2018-06-12T20:56:48.084Z,20.43
2018-06-12T20:59:00.534Z,21.83
2018-06-12T21:01:12.955Z,18.73
2018-06-12T21:03:25.339Z,18.90
2018-06-12T21:05:37.969Z,17.20
2018-06-12T21:07:50.371Z,21.17
2018-06-12T21:10:02.855Z,19.73
2018-06-12T21:12:15.310Z,20.27
2018-06-12T21:14:27.722Z,20.17
2018-06-12T21:16:40.085Z,19.60
2018-06-12T21:18:52.484Z,15.33
2018-06-12T21:21:04.890Z,19.20
2018-06-12T21:23:17.238Z,18.33
2018-06-12T21:25:29.738Z,17.53
2018-06-12T21:27:42.174Z,15.70
2018-06-12T21:29:54.542Z,18.47
2018-06-12T21:32:06.948Z,16.43
2018-06-12T21:34:19.309Z,16.53
2018-06-12T21:36:31.737Z,18.33
2018-06-12T21:38:45.819Z,15.23
2018-06-12T21:40:58.429Z,16.17
2018-06-12T21:43:10.824Z,16.73
2018-06-12T21:45:23.134Z,16.57
2018-06-12T21:47:35.513Z,14.67
2018-06-12T21:49:47.869Z,15.57
2018-06-12T21:52:00.298Z,15.80
2018-06-12T21:54:12.676Z,16.47
2018-06-12T21:56:25.019Z,14.47
2018-06-12T21:58:37.427Z,15.60
2018-06-12T22:00:50.004Z,14.33
2018-06-12T22:03:02.426Z,14.33
2018-06-12T22:05:14.833Z,14.03
2018-06-12T22:07:27.190Z,14.73
2018-06-12T22:09:39.598Z,12.57
2018-06-12T22:11:52.383Z,13.23
2018-06-12T22:14:04.837Z,12.87
2018-06-12T22:16:21.227Z,12.93
2018-06-12T22:18:33.694Z,13.33
2018-06-12T22:20:46.119Z,12.23
2018-06-12T22:22:58.518Z,13.80
2018-06-12T22:25:10.932Z,11.47
2018-06-12T22:27:23.426Z,11.87
2018-06-12T22:29:35.953Z,11.57
2018-06-12T22:31:48.353Z,10.27
2018-06-12T22:34:00.806Z,10.93
2018-06-12T22:36:13.118Z,11.07
2018-06-12T22:38:25.482Z,10.73
2018-06-12T22:40:37.906Z,11.83
2018-06-12T22:42:50.263Z,11.50
2018-06-12T22:45:02.734Z,9.23
2018-06-12T22:47:15.157Z,10.37
2018-06-12T22:49:27.541Z,9.73
2018-06-12T22:51:39.946Z,9.03
2018-06-12T22:53:52.386Z,8.33
2018-06-12T22:56:04.848Z,10.13
2018-06-12T22:58:17.181Z,10.13
2018-06-12T23:00:29.530Z,9.07
2018-06-12T23:02:41.862Z,6.90
2018-06-12T23:04:54.233Z,10.13
2018-06-12T23:07:06.646Z,10.10
2018-06-12T23:09:19.015Z,8.87
2018-06-12T23:11:31.410Z,9.93
2018-06-12T23:13:43.861Z,10.10
2018-06-12T23:15:56.202Z,9.47
2018-06-12T23:18:08.578Z,10.53
2018-06-12T23:20:32.422Z,10.40
2018-06-12T23:22:44.776Z,8.37
2018-06-12T23:24:57.150Z,8.90
2018-06-12T23:27:09.738Z,10.03
2018-06-12T23:29:22.045Z,11.13
2018-06-12T23:31:34.382Z,11.07
2018-06-12T23:33:46.864Z,11.33
2018-06-12T23:35:59.275Z,10.60
2018-06-12T23:38:11.683Z,10.87
2018-06-12T23:40:24.076Z,11.63
2018-06-12T23:42:36.464Z,9.83
2018-06-12T23:44:48.849Z,12.30
2018-06-12T23:47:01.170Z,11.27
2018-06-12T23:49:13.511Z,11.93
2018-06-12T23:51:25.890Z,10.50
2018-06-12T23:53:38.271Z,10.37
2018-06-12T23:55:50.798Z,10.50
2018-06-12T23:58:03.186Z,11.57
